Botucatu, Brazil
Current Conditions -  °F | °C
As of 12:00 AM on Friday 19 Dec 2014 (Local Time) from SBBU Reporting Station
Clear Clear  
Wind Chill: 82°   Ceiling: Unl
Heat Index: 86°   Visibility: 6mi
Dew Point: 70°   Wind: 0mph
Humidity: 66%   Direction: NA
Pressure: 29.85"   Gusts: NA
Location:  22.88°S, 48.45°W
Report Text: SBBU 190200Z 00000KT CAVOK 28/21 Q1011
Loading
Personal Weather Stations






























Interactive Weather Map New forecast layout! Learn more

10-Day Weather Forecast

Advertisements
Track Severe Weather on mobile